sensor_id;sensor_type;location;lat;lon;timestamp;temperature;humidity
33655;DHT22;19997;51.274;22.506;2023-05-10T00:01:16;8.90;58.40
33655;DHT22;19997;51.274;22.506;2023-05-10T00:03:43;8.90;58.50
33655;DHT22;19997;51.274;22.506;2023-05-10T00:06:10;8.90;58.50
33655;DHT22;19997;51.274;22.506;2023-05-10T00:08:37;8.90;58.70
33655;DHT22;19997;51.274;22.506;2023-05-10T00:11:04;8.90;58.60
33655;DHT22;19997;51.274;22.506;2023-05-10T00:13:32;8.80;58.70
33655;DHT22;19997;51.274;22.506;2023-05-10T00:16:00;8.80;58.70
33655;DHT22;19997;51.274;22.506;2023-05-10T00:18:27;8.80;58.70
33655;DHT22;19997;51.274;22.506;2023-05-10T00:20:54;8.80;58.90
33655;DHT22;19997;51.274;22.506;2023-05-10T00:23:21;8.80;58.90
33655;DHT22;19997;51.274;22.506;2023-05-10T00:25:48;8.80;59.10
33655;DHT22;19997;51.274;22.506;2023-05-10T00:28:15;8.80;59.10
33655;DHT22;19997;51.274;22.506;2023-05-10T00:30:42;8.70;59.00
33655;DHT22;19997;51.274;22.506;2023-05-10T00:33:11;8.70;59.20
33655;DHT22;19997;51.274;22.506;2023-05-10T00:35:38;8.70;59.20
33655;DHT22;19997;51.274;22.506;2023-05-10T00:38:06;8.60;59.30
33655;DHT22;19997;51.274;22.506;2023-05-10T00:40:33;8.70;59.30
33655;DHT22;19997;51.274;22.506;2023-05-10T00:43:05;8.60;59.50
33655;DHT22;19997;51.274;22.506;2023-05-10T00:45:32;8.60;59.60
33655;DHT22;19997;51.274;22.506;2023-05-10T00:48:01;8.60;59.60
33655;DHT22;19997;51.274;22.506;2023-05-10T00:50:31;8.60;59.60
33655;DHT22;19997;51.274;22.506;2023-05-10T00:52:59;8.50;59.60
33655;DHT22;19997;51.274;22.506;2023-05-10T00:55:27;8.50;60.40
33655;DHT22;19997;51.274;22.506;2023-05-10T00:57:54;8.50;59.80
33655;DHT22;19997;51.274;22.506;2023-05-10T01:00:21;8.50;59.80
33655;DHT22;19997;51.274;22.506;2023-05-10T01:03:09;8.50;59.90
33655;DHT22;19997;51.274;22.506;2023-05-10T01:05:38;8.50;60.60
33655;DHT22;19997;51.274;22.506;2023-05-10T01:08:05;8.50;59.90
33655;DHT22;19997;51.274;22.506;2023-05-10T01:10:34;8.40;60.00
33655;DHT22;19997;51.274;22.506;2023-05-10T01:13:02;8.40;60.10
33655;DHT22;19997;51.274;22.506;2023-05-10T01:15:30;8.40;60.40
33655;DHT22;19997;51.274;22.506;2023-05-10T01:17:57;8.40;60.40
33655;DHT22;19997;51.274;22.506;2023-05-10T01:20:24;8.30;60.40
33655;DHT22;19997;51.274;22.506;2023-05-10T01:26:27;8.30;60.60
33655;DHT22;19997;51.274;22.506;2023-05-10T01:29:14;8.30;60.30
33655;DHT22;19997;51.274;22.506;2023-05-10T01:32:06;8.20;60.40
33655;DHT22;19997;51.274;22.506;2023-05-10T01:34:45;8.20;60.80
33655;DHT22;19997;51.274;22.506;2023-05-10T01:37:21;8.10;60.90
33655;DHT22;19997;51.274;22.506;2023-05-10T01:39:54;8.10;61.00
33655;DHT22;19997;51.274;22.506;2023-05-10T01:42:26;8.10;61.20
33655;DHT22;19997;51.274;22.506;2023-05-10T01:45:02;8.00;61.20
33655;DHT22;19997;51.274;22.506;2023-05-10T01:47:38;8.00;61.30
33655;DHT22;19997;51.274;22.506;2023-05-10T01:50:10;8.00;61.40
33655;DHT22;19997;51.274;22.506;2023-05-10T01:52:42;7.90;61.40
33655;DHT22;19997;51.274;22.506;2023-05-10T01:55:15;7.90;61.50
33655;DHT22;19997;51.274;22.506;2023-05-10T01:57:44;7.90;61.70
33655;DHT22;19997;51.274;22.506;2023-05-10T02:00:14;7.90;61.70
33655;DHT22;19997;51.274;22.506;2023-05-10T02:02:46;7.80;61.80
33655;DHT22;19997;51.274;22.506;2023-05-10T02:05:15;7.80;61.90
33655;DHT22;19997;51.274;22.506;2023-05-10T02:07:43;7.80;62.00
33655;DHT22;19997;51.274;22.506;2023-05-10T02:10:12;7.80;62.30
33655;DHT22;19997;51.274;22.506;2023-05-10T02:12:42;7.70;62.40
33655;DHT22;19997;51.274;22.506;2023-05-10T02:15:12;7.70;62.40
33655;DHT22;19997;51.274;22.506;2023-05-10T02:17:43;7.70;62.40
33655;DHT22;19997;51.274;22.506;2023-05-10T02:20:11;7.70;62.50
33655;DHT22;19997;51.274;22.506;2023-05-10T02:22:40;7.60;62.50
33655;DHT22;19997;51.274;22.506;2023-05-10T02:25:08;7.60;62.70
33655;DHT22;19997;51.274;22.506;2023-05-10T02:27:38;7.60;62.80
33655;DHT22;19997;51.274;22.506;2023-05-10T02:30:08;7.60;62.70
33655;DHT22;19997;51.274;22.506;2023-05-10T02:32:37;7.60;62.80
33655;DHT22;19997;51.274;22.506;2023-05-10T02:35:07;7.50;62.90
33655;DHT22;19997;51.274;22.506;2023-05-10T02:37:36;7.50;62.90
33655;DHT22;19997;51.274;22.506;2023-05-10T02:40:05;7.50;63.00
33655;DHT22;19997;51.274;22.506;2023-05-10T02:42:36;7.50;63.10
33655;DHT22;19997;51.274;22.506;2023-05-10T02:45:08;7.50;63.20
33655;DHT22;19997;51.274;22.506;2023-05-10T02:47:37;7.50;63.20
33655;DHT22;19997;51.274;22.506;2023-05-10T02:50:07;7.50;63.20
33655;DHT22;19997;51.274;22.506;2023-05-10T02:52:39;7.50;63.30
33655;DHT22;19997;51.274;22.506;2023-05-10T02:55:09;7.40;63.30
33655;DHT22;19997;51.274;22.506;2023-05-10T02:57:43;7.40;63.30
33655;DHT22;19997;51.274;22.506;2023-05-10T03:00:11;7.40;63.40
33655;DHT22;19997;51.274;22.506;2023-05-10T03:02:38;7.40;63.60
33655;DHT22;19997;51.274;22.506;2023-05-10T03:05:08;7.40;63.60
33655;DHT22;19997;51.274;22.506;2023-05-10T03:07:35;7.30;63.50
33655;DHT22;19997;51.274;22.506;2023-05-10T03:10:04;7.40;63.70
33655;DHT22;19997;51.274;22.506;2023-05-10T03:12:41;7.40;63.60
33655;DHT22;19997;51.274;22.506;2023-05-10T03:15:13;7.40;63.60
33655;DHT22;19997;51.274;22.506;2023-05-10T03:17:47;7.40;63.70
33655;DHT22;19997;51.274;22.506;2023-05-10T03:20:22;7.40;63.80
33655;DHT22;19997;51.274;22.506;2023-05-10T03:22:53;7.40;63.90
33655;DHT22;19997;51.274;22.506;2023-05-10T03:25:21;7.40;63.90
33655;DHT22;19997;51.274;22.506;2023-05-10T03:27:51;7.40;64.10
33655;DHT22;19997;51.274;22.506;2023-05-10T03:30:19;7.40;64.20
33655;DHT22;19997;51.274;22.506;2023-05-10T03:32:46;7.40;64.40
33655;DHT22;19997;51.274;22.506;2023-05-10T03:35:17;7.40;64.50
33655;DHT22;19997;51.274;22.506;2023-05-10T03:37:44;7.40;64.90
33655;DHT22;19997;51.274;22.506;2023-05-10T03:40:12;7.40;64.80
33655;DHT22;19997;51.274;22.506;2023-05-10T03:42:41;7.40;65.60
33655;DHT22;19997;51.274;22.506;2023-05-10T03:45:09;7.40;64.90
33655;DHT22;19997;51.274;22.506;2023-05-10T03:47:36;7.40;65.00
33655;DHT22;19997;51.274;22.506;2023-05-10T03:50:04;7.40;65.40
33655;DHT22;19997;51.274;22.506;2023-05-10T03:52:34;7.50;65.40
33655;DHT22;19997;51.274;22.506;2023-05-10T03:55:01;7.50;65.30
33655;DHT22;19997;51.274;22.506;2023-05-10T03:57:29;7.50;65.30
33655;DHT22;19997;51.274;22.506;2023-05-10T04:00:02;7.60;65.40
33655;DHT22;19997;51.274;22.506;2023-05-10T04:02:50;7.60;65.40
33655;DHT22;19997;51.274;22.506;2023-05-10T04:05:19;7.70;65.30
33655;DHT22;19997;51.274;22.506;2023-05-10T04:07:47;7.70;65.20
33655;DHT22;19997;51.274;22.506;2023-05-10T04:10:15;7.80;65.20
33655;DHT22;19997;51.274;22.506;2023-05-10T04:12:43;7.80;65.30
33655;DHT22;19997;51.274;22.506;2023-05-10T04:15:13;7.90;65.30
33655;DHT22;19997;51.274;22.506;2023-05-10T04:17:48;7.90;65.30
33655;DHT22;19997;51.274;22.506;2023-05-10T04:20:16;8.00;65.20
33655;DHT22;19997;51.274;22.506;2023-05-10T04:22:44;8.10;65.20
33655;DHT22;19997;51.274;22.506;2023-05-10T04:25:15;8.10;65.20
33655;DHT22;19997;51.274;22.506;2023-05-10T04:27:42;8.20;65.10
33655;DHT22;19997;51.274;22.506;2023-05-10T04:30:10;8.30;65.10
33655;DHT22;19997;51.274;22.506;2023-05-10T04:32:37;8.40;65.00
33655;DHT22;19997;51.274;22.506;2023-05-10T04:35:05;8.50;64.80
33655;DHT22;19997;51.274;22.506;2023-05-10T04:37:32;8.50;64.60
33655;DHT22;19997;51.274;22.506;2023-05-10T04:40:00;8.60;64.50
33655;DHT22;19997;51.274;22.506;2023-05-10T04:42:30;8.70;64.50
33655;DHT22;19997;51.274;22.506;2023-05-10T04:44:57;8.80;64.40
33655;DHT22;19997;51.274;22.506;2023-05-10T04:47:25;8.90;64.30
33655;DHT22;19997;51.274;22.506;2023-05-10T04:49:52;9.00;64.00
33655;DHT22;19997;51.274;22.506;2023-05-10T04:52:19;9.10;63.90
33655;DHT22;19997;51.274;22.506;2023-05-10T04:54:46;9.20;63.80
33655;DHT22;19997;51.274;22.506;2023-05-10T04:57:13;9.30;63.80
33655;DHT22;19997;51.274;22.506;2023-05-10T04:59:42;9.40;63.70
33655;DHT22;19997;51.274;22.506;2023-05-10T05:02:09;9.40;63.50
33655;DHT22;19997;51.274;22.506;2023-05-10T05:04:36;9.60;63.40
33655;DHT22;19997;51.274;22.506;2023-05-10T05:07:04;9.60;63.30
33655;DHT22;19997;51.274;22.506;2023-05-10T05:09:31;9.70;63.30
33655;DHT22;19997;51.274;22.506;2023-05-10T05:12:02;9.80;63.40
33655;DHT22;19997;51.274;22.506;2023-05-10T05:14:32;9.90;63.10
33655;DHT22;19997;51.274;22.506;2023-05-10T05:17:02;10.10;63.00
33655;DHT22;19997;51.274;22.506;2023-05-10T05:19:32;10.10;62.80
33655;DHT22;19997;51.274;22.506;2023-05-10T05:22:00;10.20;62.60
33655;DHT22;19997;51.274;22.506;2023-05-10T05:24:27;10.30;62.60
33655;DHT22;19997;51.274;22.506;2023-05-10T05:26:54;10.50;62.70
33655;DHT22;19997;51.274;22.506;2023-05-10T05:29:21;10.60;62.70
33655;DHT22;19997;51.274;22.506;2023-05-10T05:31:48;10.70;62.70
33655;DHT22;19997;51.274;22.506;2023-05-10T05:34:17;10.80;62.50
33655;DHT22;19997;51.274;22.506;2023-05-10T05:36:46;10.90;62.20
33655;DHT22;19997;51.274;22.506;2023-05-10T05:39:14;11.00;61.90
33655;DHT22;19997;51.274;22.506;2023-05-10T05:41:41;11.20;61.90
33655;DHT22;19997;51.274;22.506;2023-05-10T05:44:09;11.30;61.60
33655;DHT22;19997;51.274;22.506;2023-05-10T05:46:36;11.40;61.20
33655;DHT22;19997;51.274;22.506;2023-05-10T05:49:07;11.50;61.00
33655;DHT22;19997;51.274;22.506;2023-05-10T05:51:36;11.60;60.60
33655;DHT22;19997;51.274;22.506;2023-05-10T05:54:05;11.80;60.30
33655;DHT22;19997;51.274;22.506;2023-05-10T05:56:33;11.90;60.00
33655;DHT22;19997;51.274;22.506;2023-05-10T05:59:01;12.00;60.00
33655;DHT22;19997;51.274;22.506;2023-05-10T06:01:29;12.10;59.90
33655;DHT22;19997;51.274;22.506;2023-05-10T06:04:00;12.20;59.90
33655;DHT22;19997;51.274;22.506;2023-05-10T06:06:28;12.30;59.60
33655;DHT22;19997;51.274;22.506;2023-05-10T06:08:56;12.40;60.10
33655;DHT22;19997;51.274;22.506;2023-05-10T06:11:23;12.50;59.50
33655;DHT22;19997;51.274;22.506;2023-05-10T06:13:51;12.60;59.40
33655;DHT22;19997;51.274;22.506;2023-05-10T06:16:18;12.70;59.50
33655;DHT22;19997;51.274;22.506;2023-05-10T06:18:46;12.80;59.80
33655;DHT22;19997;51.274;22.506;2023-05-10T06:21:13;12.90;59.80
33655;DHT22;19997;51.274;22.506;2023-05-10T06:23:41;13.00;59.50
33655;DHT22;19997;51.274;22.506;2023-05-10T06:26:09;13.10;59.40
33655;DHT22;19997;51.274;22.506;2023-05-10T06:28:37;13.20;59.30
33655;DHT22;19997;51.274;22.506;2023-05-10T06:31:05;13.30;59.30
33655;DHT22;19997;51.274;22.506;2023-05-10T06:33:32;13.40;59.20
33655;DHT22;19997;51.274;22.506;2023-05-10T06:36:00;13.50;59.20
33655;DHT22;19997;51.274;22.506;2023-05-10T06:38:29;13.60;59.80
33655;DHT22;19997;51.274;22.506;2023-05-10T06:40:59;13.70;58.90
33655;DHT22;19997;51.274;22.506;2023-05-10T06:43:31;13.70;58.70
33655;DHT22;19997;51.274;22.506;2023-05-10T06:45:58;13.80;58.80
33655;DHT22;19997;51.274;22.506;2023-05-10T06:48:26;13.80;58.70
33655;DHT22;19997;51.274;22.506;2023-05-10T06:50:53;13.90;58.70
33655;DHT22;19997;51.274;22.506;2023-05-10T06:53:20;13.90;58.80
33655;DHT22;19997;51.274;22.506;2023-05-10T06:55:51;14.00;58.50
33655;DHT22;19997;51.274;22.506;2023-05-10T06:58:19;14.10;58.50
33655;DHT22;19997;51.274;22.506;2023-05-10T07:00:48;14.20;58.50
33655;DHT22;19997;51.274;22.506;2023-05-10T07:03:16;14.30;58.50
33655;DHT22;19997;51.274;22.506;2023-05-10T07:05:45;14.40;58.30
33655;DHT22;19997;51.274;22.506;2023-05-10T07:08:12;14.50;57.60
33655;DHT22;19997;51.274;22.506;2023-05-10T07:10:40;14.50;57.00
33655;DHT22;19997;51.274;22.506;2023-05-10T07:13:09;14.60;56.70
33655;DHT22;19997;51.274;22.506;2023-05-10T07:15:36;14.70;56.90
33655;DHT22;19997;51.274;22.506;2023-05-10T07:18:05;14.70;57.20
33655;DHT22;19997;51.274;22.506;2023-05-10T07:20:32;14.90;57.60
33655;DHT22;19997;51.274;22.506;2023-05-10T07:23:01;15.00;57.60
33655;DHT22;19997;51.274;22.506;2023-05-10T07:25:29;15.10;57.70
33655;DHT22;19997;51.274;22.506;2023-05-10T07:27:56;15.20;57.80
33655;DHT22;19997;51.274;22.506;2023-05-10T07:30:24;15.30;57.60
33655;DHT22;19997;51.274;22.506;2023-05-10T07:32:55;15.40;57.00
33655;DHT22;19997;51.274;22.506;2023-05-10T07:35:26;15.50;56.90
33655;DHT22;19997;51.274;22.506;2023-05-10T07:37:53;15.60;56.30
33655;DHT22;19997;51.274;22.506;2023-05-10T07:40:21;15.70;55.10
33655;DHT22;19997;51.274;22.506;2023-05-10T07:42:49;15.80;54.90
33655;DHT22;19997;51.274;22.506;2023-05-10T07:45:16;15.70;54.70
33655;DHT22;19997;51.274;22.506;2023-05-10T07:47:44;15.90;54.70
33655;DHT22;19997;51.274;22.506;2023-05-10T07:50:11;16.00;55.00
33655;DHT22;19997;51.274;22.506;2023-05-10T07:52:40;16.00;54.70
33655;DHT22;19997;51.274;22.506;2023-05-10T07:55:08;16.00;53.50
33655;DHT22;19997;51.274;22.506;2023-05-10T07:57:38;16.10;53.20
33655;DHT22;19997;51.274;22.506;2023-05-10T08:00:07;16.20;52.40
33655;DHT22;19997;51.274;22.506;2023-05-10T08:02:40;16.30;52.20
33655;DHT22;19997;51.274;22.506;2023-05-10T08:05:08;16.40;51.80
33655;DHT22;19997;51.274;22.506;2023-05-10T08:07:36;16.40;51.80
33655;DHT22;19997;51.274;22.506;2023-05-10T08:10:06;16.50;51.80
33655;DHT22;19997;51.274;22.506;2023-05-10T08:12:34;16.50;51.50
33655;DHT22;19997;51.274;22.506;2023-05-10T08:15:01;16.60;50.60
33655;DHT22;19997;51.274;22.506;2023-05-10T08:17:29;16.60;50.00
33655;DHT22;19997;51.274;22.506;2023-05-10T08:19:57;16.70;49.40
33655;DHT22;19997;51.274;22.506;2023-05-10T08:22:25;16.70;48.20
33655;DHT22;19997;51.274;22.506;2023-05-10T08:24:55;16.70;47.80
33655;DHT22;19997;51.274;22.506;2023-05-10T08:27:27;16.80;48.00
33655;DHT22;19997;51.274;22.506;2023-05-10T08:29:59;16.90;47.20
33655;DHT22;19997;51.274;22.506;2023-05-10T08:32:29;16.90;46.40
33655;DHT22;19997;51.274;22.506;2023-05-10T08:35:00;16.90;46.70
33655;DHT22;19997;51.274;22.506;2023-05-10T08:37:30;17.00;45.80
33655;DHT22;19997;51.274;22.506;2023-05-10T08:40:04;17.00;45.60
33655;DHT22;19997;51.274;22.506;2023-05-10T08:42:36;17.10;45.30
33655;DHT22;19997;51.274;22.506;2023-05-10T08:45:08;17.10;45.00
33655;DHT22;19997;51.274;22.506;2023-05-10T08:47:43;17.10;45.30
33655;DHT22;19997;51.274;22.506;2023-05-10T08:50:11;17.20;45.10
33655;DHT22;19997;51.274;22.506;2023-05-10T08:52:42;17.30;45.50
33655;DHT22;19997;51.274;22.506;2023-05-10T08:55:10;17.30;46.10
33655;DHT22;19997;51.274;22.506;2023-05-10T08:57:49;17.40;45.90
33655;DHT22;19997;51.274;22.506;2023-05-10T09:00:21;17.50;45.80
33655;DHT22;19997;51.274;22.506;2023-05-10T09:02:50;17.60;45.70
33655;DHT22;19997;51.274;22.506;2023-05-10T09:05:17;17.60;45.50
33655;DHT22;19997;51.274;22.506;2023-05-10T09:07:45;17.70;45.60
33655;DHT22;19997;51.274;22.506;2023-05-10T09:10:13;17.70;44.90
33655;DHT22;19997;51.274;22.506;2023-05-10T09:12:41;17.80;44.90
33655;DHT22;19997;51.274;22.506;2023-05-10T09:15:13;17.80;44.70
33655;DHT22;19997;51.274;22.506;2023-05-10T09:17:46;17.90;44.60
33655;DHT22;19997;51.274;22.506;2023-05-10T09:20:14;17.90;44.40
33655;DHT22;19997;51.274;22.506;2023-05-10T09:22:43;17.80;44.30
33655;DHT22;19997;51.274;22.506;2023-05-10T09:25:12;17.80;43.80
33655;DHT22;19997;51.274;22.506;2023-05-10T09:27:45;17.80;44.40
33655;DHT22;19997;51.274;22.506;2023-05-10T09:30:25;17.80;43.90
33655;DHT22;19997;51.274;22.506;2023-05-10T09:32:53;17.90;44.10
33655;DHT22;19997;51.274;22.506;2023-05-10T09:35:23;17.90;43.80
33655;DHT22;19997;51.274;22.506;2023-05-10T09:37:52;18.00;43.20
33655;DHT22;19997;51.274;22.506;2023-05-10T09:40:24;18.00;43.50
33655;DHT22;19997;51.274;22.506;2023-05-10T09:42:53;18.20;43.60
33655;DHT22;19997;51.274;22.506;2023-05-10T09:45:23;18.30;43.70
33655;DHT22;19997;51.274;22.506;2023-05-10T09:47:50;18.40;43.30
33655;DHT22;19997;51.274;22.506;2023-05-10T09:50:20;18.50;42.50
33655;DHT22;19997;51.274;22.506;2023-05-10T09:52:49;18.60;42.40
33655;DHT22;19997;51.274;22.506;2023-05-10T09:55:19;18.70;42.20
33655;DHT22;19997;51.274;22.506;2023-05-10T09:57:46;18.70;42.20
33655;DHT22;19997;51.274;22.506;2023-05-10T10:00:18;18.90;42.40
33655;DHT22;19997;51.274;22.506;2023-05-10T10:02:47;19.00;42.00
33655;DHT22;19997;51.274;22.506;2023-05-10T10:05:15;19.20;42.20
33655;DHT22;19997;51.274;22.506;2023-05-10T10:07:42;19.30;42.30
33655;DHT22;19997;51.274;22.506;2023-05-10T10:10:10;19.40;41.90
33655;DHT22;19997;51.274;22.506;2023-05-10T10:12:41;19.40;41.40
33655;DHT22;19997;51.274;22.506;2023-05-10T10:15:09;19.50;41.80
33655;DHT22;19997;51.274;22.506;2023-05-10T10:17:37;19.50;41.40
33655;DHT22;19997;51.274;22.506;2023-05-10T10:20:07;19.60;41.40
33655;DHT22;19997;51.274;22.506;2023-05-10T10:22:36;19.70;41.00
33655;DHT22;19997;51.274;22.506;2023-05-10T10:25:05;19.70;40.90
33655;DHT22;19997;51.274;22.506;2023-05-10T10:27:41;19.80;40.20
33655;DHT22;19997;51.274;22.506;2023-05-10T10:30:20;19.80;40.20
33655;DHT22;19997;51.274;22.506;2023-05-10T10:33:13;19.90;40.70
33655;DHT22;19997;51.274;22.506;2023-05-10T10:35:46;19.90;40.60
33655;DHT22;19997;51.274;22.506;2023-05-10T10:38:14;19.90;41.20
33655;DHT22;19997;51.274;22.506;2023-05-10T10:40:41;19.90;41.20
33655;DHT22;19997;51.274;22.506;2023-05-10T10:43:24;20.00;41.40
33655;DHT22;19997;51.274;22.506;2023-05-10T10:46:10;20.00;41.00
33655;DHT22;19997;51.274;22.506;2023-05-10T10:48:38;20.10;40.30
33655;DHT22;19997;51.274;22.506;2023-05-10T10:51:07;20.10;40.30
33655;DHT22;19997;51.274;22.506;2023-05-10T10:53:37;20.30;40.00
33655;DHT22;19997;51.274;22.506;2023-05-10T10:56:06;20.30;39.70
33655;DHT22;19997;51.274;22.506;2023-05-10T10:58:35;20.40;39.70
33655;DHT22;19997;51.274;22.506;2023-05-10T11:01:13;20.50;39.90
33655;DHT22;19997;51.274;22.506;2023-05-10T11:03:54;20.60;39.40
33655;DHT22;19997;51.274;22.506;2023-05-10T11:06:30;20.60;39.20
33655;DHT22;19997;51.274;22.506;2023-05-10T11:08:59;20.50;39.10
33655;DHT22;19997;51.274;22.506;2023-05-10T11:11:26;20.50;39.20
33655;DHT22;19997;51.274;22.506;2023-05-10T11:14:03;20.50;39.00
33655;DHT22;19997;51.274;22.506;2023-05-10T11:16:41;20.40;38.70
33655;DHT22;19997;51.274;22.506;2023-05-10T11:19:10;20.30;38.30
33655;DHT22;19997;51.274;22.506;2023-05-10T11:21:46;20.20;38.40
33655;DHT22;19997;51.274;22.506;2023-05-10T11:24:16;20.10;38.60
33655;DHT22;19997;51.274;22.506;2023-05-10T11:26:43;20.10;38.60
33655;DHT22;19997;51.274;22.506;2023-05-10T11:29:13;20.00;38.30
33655;DHT22;19997;51.274;22.506;2023-05-10T11:31:44;20.00;38.70
33655;DHT22;19997;51.274;22.506;2023-05-10T11:34:23;19.90;38.10
33655;DHT22;19997;51.274;22.506;2023-05-10T11:36:53;19.90;38.60
33655;DHT22;19997;51.274;22.506;2023-05-10T11:39:20;19.90;38.70
33655;DHT22;19997;51.274;22.506;2023-05-10T11:41:48;19.90;38.40
33655;DHT22;19997;51.274;22.506;2023-05-10T11:44:16;19.90;37.70
33655;DHT22;19997;51.274;22.506;2023-05-10T11:46:43;19.80;37.50
33655;DHT22;19997;51.274;22.506;2023-05-10T11:49:10;19.80;37.50
33655;DHT22;19997;51.274;22.506;2023-05-10T11:51:39;19.80;37.30
33655;DHT22;19997;51.274;22.506;2023-05-10T11:54:10;19.80;37.30
33655;DHT22;19997;51.274;22.506;2023-05-10T11:56:40;19.80;37.20
33655;DHT22;19997;51.274;22.506;2023-05-10T11:59:07;19.80;37.30
33655;DHT22;19997;51.274;22.506;2023-05-10T12:01:34;19.80;37.50
33655;DHT22;19997;51.274;22.506;2023-05-10T12:04:02;19.90;37.50
33655;DHT22;19997;51.274;22.506;2023-05-10T12:06:30;19.90;38.00
33655;DHT22;19997;51.274;22.506;2023-05-10T12:08:58;20.00;37.90
33655;DHT22;19997;51.274;22.506;2023-05-10T12:11:28;20.10;37.50
33655;DHT22;19997;51.274;22.506;2023-05-10T12:13:55;20.20;36.80
33655;DHT22;19997;51.274;22.506;2023-05-10T12:16:24;20.20;37.20
33655;DHT22;19997;51.274;22.506;2023-05-10T12:18:56;20.20;37.10
33655;DHT22;19997;51.274;22.506;2023-05-10T12:21:24;20.20;36.40
33655;DHT22;19997;51.274;22.506;2023-05-10T12:23:53;20.10;36.70
33655;DHT22;19997;51.274;22.506;2023-05-10T12:26:22;19.90;36.40
33655;DHT22;19997;51.274;22.506;2023-05-10T12:28:52;19.80;37.00
33655;DHT22;19997;51.274;22.506;2023-05-10T12:31:19;19.80;37.50
33655;DHT22;19997;51.274;22.506;2023-05-10T12:33:47;19.80;37.70
33655;DHT22;19997;51.274;22.506;2023-05-10T12:36:15;19.70;37.40
33655;DHT22;19997;51.274;22.506;2023-05-10T12:38:44;19.70;37.50
33655;DHT22;19997;51.274;22.506;2023-05-10T12:41:14;19.70;37.60
33655;DHT22;19997;51.274;22.506;2023-05-10T12:43:42;19.60;37.30
33655;DHT22;19997;51.274;22.506;2023-05-10T12:46:11;19.60;37.40
33655;DHT22;19997;51.274;22.506;2023-05-10T12:48:40;19.60;37.70
33655;DHT22;19997;51.274;22.506;2023-05-10T12:51:07;19.60;37.60
33655;DHT22;19997;51.274;22.506;2023-05-10T12:53:37;19.60;37.70
33655;DHT22;19997;51.274;22.506;2023-05-10T12:56:06;19.70;37.30
33655;DHT22;19997;51.274;22.506;2023-05-10T12:58:34;19.60;36.80
33655;DHT22;19997;51.274;22.506;2023-05-10T13:01:01;19.60;36.90
33655;DHT22;19997;51.274;22.506;2023-05-10T13:03:31;19.50;37.00
33655;DHT22;19997;51.274;22.506;2023-05-10T13:05:58;19.60;37.60
33655;DHT22;19997;51.274;22.506;2023-05-10T13:08:25;19.60;37.80
33655;DHT22;19997;51.274;22.506;2023-05-10T13:10:52;19.70;37.70
33655;DHT22;19997;51.274;22.506;2023-05-10T13:13:19;19.70;37.20
33655;DHT22;19997;51.274;22.506;2023-05-10T13:15:46;19.70;37.40
33655;DHT22;19997;51.274;22.506;2023-05-10T13:18:13;19.60;37.40
33655;DHT22;19997;51.274;22.506;2023-05-10T13:20:42;19.60;37.40
33655;DHT22;19997;51.274;22.506;2023-05-10T13:23:10;19.60;37.20
33655;DHT22;19997;51.274;22.506;2023-05-10T13:25:37;19.50;37.20
33655;DHT22;19997;51.274;22.506;2023-05-10T13:28:04;19.50;37.40
33655;DHT22;19997;51.274;22.506;2023-05-10T13:30:31;19.40;37.60
33655;DHT22;19997;51.274;22.506;2023-05-10T13:32:58;19.30;37.80
33655;DHT22;19997;51.274;22.506;2023-05-10T13:35:25;19.30;37.90
33655;DHT22;19997;51.274;22.506;2023-05-10T13:37:54;19.30;37.80
33655;DHT22;19997;51.274;22.506;2023-05-10T13:40:23;19.30;37.60
33655;DHT22;19997;51.274;22.506;2023-05-10T13:42:50;19.30;37.90
33655;DHT22;19997;51.274;22.506;2023-05-10T13:45:17;19.30;38.60
33655;DHT22;19997;51.274;22.506;2023-05-10T13:47:44;19.40;38.60
33655;DHT22;19997;51.274;22.506;2023-05-10T13:50:11;19.40;38.60
33655;DHT22;19997;51.274;22.506;2023-05-10T13:52:39;19.50;38.30
33655;DHT22;19997;51.274;22.506;2023-05-10T13:55:10;19.50;38.00
33655;DHT22;19997;51.274;22.506;2023-05-10T13:57:38;19.60;38.40
33655;DHT22;19997;51.274;22.506;2023-05-10T14:00:07;19.60;38.40
33655;DHT22;19997;51.274;22.506;2023-05-10T14:02:34;19.80;38.50
33655;DHT22;19997;51.274;22.506;2023-05-10T14:05:01;19.90;38.30
33655;DHT22;19997;51.274;22.506;2023-05-10T14:07:28;19.90;38.20
33655;DHT22;19997;51.274;22.506;2023-05-10T14:09:56;20.10;37.60
33655;DHT22;19997;51.274;22.506;2023-05-10T14:12:24;20.20;37.40
33655;DHT22;19997;51.274;22.506;2023-05-10T14:14:51;20.40;37.20
33655;DHT22;19997;51.274;22.506;2023-05-10T14:17:18;20.60;37.00
33655;DHT22;19997;51.274;22.506;2023-05-10T14:19:46;20.80;37.10
33655;DHT22;19997;51.274;22.506;2023-05-10T14:22:13;21.00;36.80
33655;DHT22;19997;51.274;22.506;2023-05-10T14:24:40;21.30;36.10
33655;DHT22;19997;51.274;22.506;2023-05-10T14:27:09;21.50;35.70
33655;DHT22;19997;51.274;22.506;2023-05-10T14:29:37;21.80;35.60
33655;DHT22;19997;51.274;22.506;2023-05-10T14:32:04;22.10;35.30
33655;DHT22;19997;51.274;22.506;2023-05-10T14:34:32;22.40;34.90
33655;DHT22;19997;51.274;22.506;2023-05-10T14:37:00;22.80;34.50
33655;DHT22;19997;51.274;22.506;2023-05-10T14:39:28;23.30;34.20
33655;DHT22;19997;51.274;22.506;2023-05-10T14:41:55;24.10;33.60
33655;DHT22;19997;51.274;22.506;2023-05-10T14:44:22;25.20;32.40
33655;DHT22;19997;51.274;22.506;2023-05-10T14:46:52;26.60;31.80
33655;DHT22;19997;51.274;22.506;2023-05-10T14:49:19;28.00;30.90
33655;DHT22;19997;51.274;22.506;2023-05-10T14:51:48;29.40;29.80
33655;DHT22;19997;51.274;22.506;2023-05-10T14:54:15;30.60;28.70
33655;DHT22;19997;51.274;22.506;2023-05-10T14:56:42;31.60;27.90
33655;DHT22;19997;51.274;22.506;2023-05-10T14:59:10;32.30;27.50
33655;DHT22;19997;51.274;22.506;2023-05-10T15:01:37;33.10;27.00
33655;DHT22;19997;51.274;22.506;2023-05-10T15:04:05;33.80;26.30
33655;DHT22;19997;51.274;22.506;2023-05-10T15:06:33;34.30;25.60
33655;DHT22;19997;51.274;22.506;2023-05-10T15:09:01;34.80;25.30
33655;DHT22;19997;51.274;22.506;2023-05-10T15:11:29;35.20;25.10
33655;DHT22;19997;51.274;22.506;2023-05-10T15:13:57;35.70;24.60
33655;DHT22;19997;51.274;22.506;2023-05-10T15:16:24;36.10;24.50
33655;DHT22;19997;51.274;22.506;2023-05-10T15:18:51;36.50;23.80
33655;DHT22;19997;51.274;22.506;2023-05-10T15:21:23;36.70;23.60
33655;DHT22;19997;51.274;22.506;2023-05-10T15:23:51;37.00;23.30
33655;DHT22;19997;51.274;22.506;2023-05-10T15:26:18;37.30;23.40
33655;DHT22;19997;51.274;22.506;2023-05-10T15:28:46;37.80;23.30
33655;DHT22;19997;51.274;22.506;2023-05-10T15:31:13;38.00;22.90
33655;DHT22;19997;51.274;22.506;2023-05-10T15:33:41;38.10;22.80
33655;DHT22;19997;51.274;22.506;2023-05-10T15:36:08;38.30;22.90